createdAt,value
2022-09-01T00:01:49.612Z,34.00
2022-09-01T00:04:20.363Z,30.48
2022-09-01T00:06:47.965Z,29.60
2022-09-01T00:09:18.243Z,30.73
2022-09-01T00:11:50.434Z,32.33
2022-09-01T00:14:30.225Z,27.23
2022-09-01T00:17:05.857Z,30.75
2022-09-01T00:19:33.983Z,25.73
2022-09-01T00:22:01.647Z,31.95
2022-09-01T00:24:29.640Z,29.15
2022-09-01T00:26:57.388Z,34.42
2022-09-01T00:29:26.155Z,33.08
2022-09-01T00:31:53.968Z,32.25
2022-09-01T00:34:21.043Z,36.78
2022-09-01T00:36:48.300Z,31.13
2022-09-01T00:39:15.924Z,23.48
2022-09-01T00:41:44.181Z,27.50
2022-09-01T00:44:14.490Z,25.90
2022-09-01T00:46:49.635Z,32.30
2022-09-01T00:49:34.993Z,29.17
2022-09-01T00:52:10.462Z,36.63
2022-09-01T00:54:42.959Z,31.50
2022-09-01T00:57:10.487Z,26.88
2022-09-01T00:59:43.753Z,28.60
2022-09-01T01:02:11.457Z,33.53
2022-09-01T01:04:38.867Z,31.70
2022-09-01T01:07:06.411Z,25.02
2022-09-01T01:09:36.287Z,34.47
2022-09-01T01:12:05.685Z,28.85
2022-09-01T01:14:37.048Z,35.15
2022-09-01T01:17:04.418Z,35.38
2022-09-01T01:19:55.936Z,34.53
2022-09-01T01:22:45.143Z,33.30
2022-09-01T01:25:12.932Z,34.33
2022-09-01T01:27:43.939Z,28.88
2022-09-01T01:30:12.537Z,31.35
2022-09-01T01:32:43.339Z,32.63
2022-09-01T01:35:15.030Z,30.00
2022-09-01T01:37:46.643Z,31.02
2022-09-01T01:40:16.629Z,31.70
2022-09-01T01:42:46.142Z,33.58
2022-09-01T01:45:17.294Z,34.55
2022-09-01T01:47:48.162Z,40.80
2022-09-01T01:50:15.784Z,31.48
2022-09-01T01:52:45.576Z,30.83
2022-09-01T01:55:13.304Z,31.52
2022-09-01T01:57:51.625Z,32.15
2022-09-01T02:00:30.042Z,33.88
2022-09-01T02:02:58.830Z,34.60
2022-09-01T02:05:32.280Z,46.40
2022-09-01T02:08:04.802Z,45.03
2022-09-01T02:10:35.528Z,110.63
2022-09-01T02:13:07.557Z,92.85
2022-09-01T02:15:46.477Z,130.68
2022-09-01T02:18:19.882Z,46.13
2022-09-01T02:20:49.623Z,50.22
2022-09-01T02:23:20.250Z,57.58
2022-09-01T02:26:14.040Z,99.57
2022-09-01T02:28:38.769Z,151.63
2022-09-01T02:31:09.054Z,80.10
2022-09-01T02:33:37.977Z,133.85
2022-09-01T02:36:14.421Z,64.53
2022-09-01T02:38:45.984Z,57.60
2022-09-01T02:41:15.697Z,80.80
2022-09-01T02:43:46.306Z,45.70
2022-09-01T02:46:14.886Z,31.83
2022-09-01T02:48:46.229Z,41.25
2022-09-01T02:51:17.326Z,32.72
2022-09-01T02:53:46.792Z,48.65
2022-09-01T02:56:14.537Z,59.70
2022-09-01T02:58:48.705Z,82.82
2022-09-01T03:01:20.720Z,86.45
2022-09-01T03:03:50.328Z,48.65
2022-09-01T03:06:24.285Z,116.30
2022-09-01T03:11:24.804Z,120.88
2022-09-01T03:13:52.391Z,136.45
2022-09-01T03:16:19.559Z,159.02
2022-09-01T03:18:46.565Z,78.47
2022-09-01T03:21:17.756Z,152.43
2022-09-01T03:23:46.804Z,133.80
2022-09-01T03:26:15.217Z,80.13
2022-09-01T03:28:42.341Z,112.20
2022-09-01T03:31:09.293Z,102.82
2022-09-01T03:33:37.316Z,53.40
2022-09-01T03:36:15.117Z,43.50
2022-09-01T03:38:44.340Z,43.55
2022-09-01T03:41:13.219Z,39.00
2022-09-01T03:43:45.882Z,44.90
2022-09-01T03:48:55.186Z,40.92
2022-09-01T03:51:23.737Z,35.60
2022-09-01T03:53:55.262Z,32.63
2022-09-01T03:56:25.675Z,31.23
2022-09-01T03:58:54.740Z,33.58
2022-09-01T04:01:22.033Z,30.10
2022-09-01T04:03:51.032Z,29.13
2022-09-01T04:06:24.268Z,30.55
2022-09-01T04:09:03.257Z,30.95
2022-09-01T04:11:33.929Z,36.10
2022-09-01T04:14:01.889Z,36.35
2022-09-01T04:16:52.971Z,30.77
2022-09-01T04:19:27.042Z,31.08
2022-09-01T04:22:00.222Z,33.45
2022-09-01T04:24:32.937Z,33.35
2022-09-01T04:27:02.509Z,38.30
2022-09-01T04:29:32.120Z,30.65
2022-09-01T04:32:07.176Z,37.08
2022-09-01T04:34:38.692Z,33.97
2022-09-01T04:37:10.206Z,31.20
2022-09-01T04:39:39.443Z,32.30
2022-09-01T04:42:08.904Z,35.88
2022-09-01T04:44:36.784Z,32.58
2022-09-01T04:47:10.923Z,28.90
2022-09-01T04:52:05.339Z,27.65
2022-09-01T04:54:35.042Z,29.80
2022-09-01T04:57:02.145Z,36.25
2022-09-01T04:59:30.655Z,33.40
2022-09-01T05:02:01.304Z,32.28
2022-09-01T05:04:35.381Z,33.50
2022-09-01T05:07:04.317Z,32.80
2022-09-01T05:09:37.293Z,34.05
2022-09-01T05:12:16.070Z,30.40
2022-09-01T05:14:48.993Z,30.00
2022-09-01T05:17:21.865Z,33.95
2022-09-01T05:19:51.272Z,35.50
2022-09-01T05:22:22.461Z,35.17
2022-09-01T05:25:21.167Z,28.20
2022-09-01T05:27:50.030Z,33.25
2022-09-01T05:30:19.525Z,32.30
2022-09-01T05:32:49.308Z,32.38
2022-09-01T05:35:17.659Z,32.83
2022-09-01T05:37:44.967Z,35.92
2022-09-01T05:40:16.370Z,33.15
2022-09-01T05:42:45.455Z,30.08
2022-09-01T05:45:14.340Z,30.30
2022-09-01T05:47:42.219Z,32.58
2022-09-01T05:50:14.508Z,28.75
2022-09-01T05:52:47.973Z,32.20
2022-09-01T05:55:15.500Z,41.00
2022-09-01T05:57:45.296Z,46.25
2022-09-01T06:00:14.522Z,41.72
2022-09-01T06:02:43.268Z,50.63
2022-09-01T06:05:15.965Z,54.22
2022-09-01T06:07:44.355Z,43.13
2022-09-01T06:10:14.767Z,44.28
2022-09-01T06:12:43.246Z,41.85
2022-09-01T06:15:16.128Z,45.90
2022-09-01T06:17:48.093Z,42.33
2022-09-01T06:20:19.031Z,42.20
2022-09-01T06:22:47.638Z,39.13
2022-09-01T06:25:18.561Z,43.03
2022-09-01T06:27:48.331Z,44.35
2022-09-01T06:30:24.366Z,38.78
2022-09-01T06:33:11.397Z,35.70
2022-09-01T06:35:47.236Z,36.45
2022-09-01T06:38:17.632Z,35.78
2022-09-01T06:40:48.675Z,39.33
2022-09-01T06:43:19.661Z,37.03
2022-09-01T06:45:54.625Z,34.42
2022-09-01T06:48:23.783Z,38.90
2022-09-01T06:53:51.281Z,35.65
2022-09-01T06:56:19.701Z,34.28
2022-09-01T06:58:48.508Z,33.25
2022-09-01T07:01:20.056Z,35.80
2022-09-01T07:03:52.003Z,43.10
2022-09-01T07:09:50.127Z,32.30
2022-09-01T07:13:05.035Z,32.40
2022-09-01T07:18:25.466Z,30.45
2022-09-01T07:21:36.879Z,32.40
2022-09-01T07:24:17.748Z,31.48
2022-09-01T07:26:35.665Z,28.92
2022-09-01T07:29:06.126Z,37.15
2022-09-01T07:34:42.163Z,37.38
2022-09-01T07:43:27.212Z,40.67
2022-09-01T07:49:29.467Z,43.55
2022-09-01T07:51:53.461Z,37.40
2022-09-01T07:54:23.959Z,42.33
2022-09-01T07:56:52.122Z,39.63
2022-09-01T07:59:21.365Z,45.45
2022-09-01T08:02:05.800Z,37.38
2022-09-01T08:04:34.681Z,39.72
2022-09-01T08:07:03.366Z,42.22
2022-09-01T08:09:37.724Z,37.53
2022-09-01T08:12:08.460Z,40.13
2022-09-01T08:14:43.309Z,35.80
2022-09-01T08:17:18.368Z,41.30
2022-09-01T08:19:59.889Z,39.25
2022-09-01T08:22:53.559Z,38.17
2022-09-01T08:25:25.041Z,51.45
2022-09-01T08:27:59.686Z,42.50
2022-09-01T08:30:28.463Z,37.30
2022-09-01T08:32:55.681Z,32.00
2022-09-01T08:35:23.373Z,39.63
2022-09-01T08:37:50.443Z,33.85
2022-09-01T08:40:20.843Z,36.78
2022-09-01T08:43:02.992Z,35.95
2022-09-01T08:45:33.701Z,32.25
2022-09-01T08:49:09.692Z,31.33
2022-09-01T08:51:34.597Z,36.97
2022-09-01T08:54:06.593Z,38.97
2022-09-01T08:56:39.830Z,27.33
2022-09-01T08:59:12.851Z,25.52
2022-09-01T09:02:12.518Z,31.35
2022-09-01T09:05:17.224Z,31.73
2022-09-01T09:10:50.433Z,27.15
2022-09-01T09:13:24.801Z,21.25
2022-09-01T09:16:08.707Z,20.20
2022-09-01T09:21:24.584Z,20.02
2022-09-01T09:24:01.070Z,21.15
2022-09-01T09:26:48.586Z,19.60
2022-09-01T09:29:15.495Z,18.42
2022-09-01T09:32:00.382Z,16.58
2022-09-01T09:34:34.981Z,19.33
2022-09-01T09:37:23.904Z,23.50
2022-09-01T09:40:08.581Z,13.95
2022-09-01T09:42:59.614Z,13.93
2022-09-01T09:45:41.672Z,19.67
2022-09-01T09:48:29.640Z,17.90
2022-09-01T09:51:21.505Z,12.27
2022-09-01T09:53:49.084Z,16.83
2022-09-01T09:56:15.892Z,16.58
2022-09-01T09:58:46.935Z,11.15
2022-09-01T10:01:26.245Z,14.65
2022-09-01T10:03:59.188Z,12.80
2022-09-01T10:06:47.400Z,12.52
2022-09-01T10:09:37.189Z,11.65
2022-09-01T10:12:05.634Z,13.50
2022-09-01T10:14:51.779Z,13.75
2022-09-01T10:17:38.565Z,12.95
2022-09-01T10:20:14.699Z,10.32
2022-09-01T10:22:41.610Z,13.80
2022-09-01T10:25:18.018Z,12.45
2022-09-01T10:27:50.228Z,16.73
2022-09-01T10:30:21.754Z,11.50
2022-09-01T10:33:01.505Z,16.60
2022-09-01T10:35:39.028Z,14.23
2022-09-01T10:38:11.042Z,10.98
2022-09-01T10:40:49.216Z,10.10
2022-09-01T10:43:41.692Z,11.95
2022-09-01T10:46:18.241Z,15.00
2022-09-01T10:48:51.762Z,10.55
2022-09-01T10:54:05.827Z,9.35
2022-09-01T10:56:52.043Z,8.93
2022-09-01T10:59:41.836Z,10.30
2022-09-01T11:02:28.096Z,10.13
2022-09-01T11:04:59.412Z,15.13
2022-09-01T11:07:58.203Z,7.80
2022-09-01T11:13:21.049Z,10.63
2022-09-01T11:15:48.815Z,11.07
2022-09-01T11:18:27.487Z,9.40
2022-09-01T11:20:56.309Z,10.88
2022-09-01T11:23:27.793Z,11.57
2022-09-01T11:26:21.864Z,11.40
2022-09-01T11:28:49.897Z,12.55
2022-09-01T11:31:31.474Z,11.98
2022-09-01T11:34:20.929Z,13.35
2022-09-01T11:37:00.520Z,8.63
2022-09-01T11:39:52.544Z,15.80
2022-09-01T11:42:26.844Z,13.00
2022-09-01T11:45:03.194Z,12.23
2022-09-01T11:47:46.756Z,13.43
2022-09-01T11:50:16.580Z,12.20
2022-09-01T11:53:12.452Z,12.23
2022-09-01T11:55:42.784Z,9.10
2022-09-01T11:58:29.110Z,13.98
2022-09-01T12:00:57.959Z,12.15
2022-09-01T12:03:30.689Z,13.27
2022-09-01T12:06:04.286Z,15.05
2022-09-01T12:08:34.857Z,11.70
2022-09-01T12:11:10.073Z,8.77
2022-09-01T12:13:37.527Z,10.23
2022-09-01T12:16:17.939Z,12.93
2022-09-01T12:18:51.860Z,8.75
2022-09-01T12:21:29.242Z,6.65
2022-09-01T12:24:17.870Z,7.32
2022-09-01T12:26:49.249Z,11.10
2022-09-01T12:29:17.306Z,9.07
2022-09-01T12:31:47.426Z,8.98
2022-09-01T12:34:47.911Z,7.57
2022-09-01T12:37:14.883Z,13.40
2022-09-01T12:39:47.991Z,7.72
2022-09-01T12:45:11.174Z,7.93
2022-09-01T12:47:38.418Z,11.90
2022-09-01T12:50:12.885Z,8.00
2022-09-01T12:52:58.298Z,9.98
2022-09-01T12:58:25.757Z,8.07
2022-09-01T13:01:10.163Z,12.00
2022-09-01T13:04:03.766Z,11.10
2022-09-01T13:06:30.577Z,10.20
2022-09-01T13:08:57.393Z,11.18
2022-09-01T13:11:24.372Z,10.73
2022-09-01T13:13:51.152Z,10.98
2022-09-01T13:16:18.049Z,14.45
2022-09-01T13:21:32.928Z,15.63
2022-09-01T13:23:59.846Z,10.55
2022-09-01T13:26:29.846Z,15.02
2022-09-01T13:28:57.356Z,12.30
2022-09-01T13:31:31.678Z,15.80
2022-09-01T13:34:22.995Z,14.77
2022-09-01T13:36:51.043Z,13.18
2022-09-01T13:39:19.039Z,15.70
2022-09-01T13:41:47.349Z,14.63
2022-09-01T13:44:18.650Z,9.98
2022-09-01T13:47:28.677Z,12.63
2022-09-01T13:52:21.675Z,15.70
2022-09-01T13:54:48.468Z,12.82
2022-09-01T13:57:16.672Z,9.25
2022-09-01T13:59:44.445Z,8.32
2022-09-01T14:02:11.223Z,10.60
2022-09-01T14:04:38.391Z,10.48
2022-09-01T14:07:05.454Z,8.65
2022-09-01T14:09:32.369Z,10.90
2022-09-01T14:11:59.478Z,12.40
2022-09-01T14:14:26.672Z,12.02
2022-09-01T14:16:54.068Z,13.18
2022-09-01T14:19:21.073Z,15.38
2022-09-01T14:21:48.868Z,18.13
2022-09-01T14:24:16.581Z,18.48
2022-09-01T14:26:43.409Z,12.98
2022-09-01T14:29:10.365Z,19.23
2022-09-01T14:31:37.902Z,20.40
2022-09-01T14:34:06.876Z,23.27
2022-09-01T14:36:34.175Z,25.20
2022-09-01T14:39:01.186Z,18.73
2022-09-01T14:41:28.220Z,20.17
2022-09-01T14:44:02.781Z,25.02
2022-09-01T14:46:34.396Z,26.83
2022-09-01T14:49:02.782Z,26.38
2022-09-01T14:54:18.197Z,25.67
2022-09-01T14:57:28.363Z,13.45
2022-09-01T14:59:32.670Z,22.13
2022-09-01T15:02:00.755Z,16.23
2022-09-01T15:04:28.013Z,14.52
2022-09-01T15:06:55.868Z,17.60
2022-09-01T15:09:22.760Z,16.05
2022-09-01T15:11:49.571Z,14.15
2022-09-01T15:14:16.561Z,14.18
2022-09-01T15:16:43.469Z,16.73
2022-09-01T15:19:13.451Z,15.27
2022-09-01T15:21:42.808Z,12.70
2022-09-01T15:24:10.662Z,14.88
2022-09-01T15:26:41.000Z,12.32
2022-09-01T15:29:12.121Z,15.98
2022-09-01T15:31:39.426Z,19.60
2022-09-01T15:34:06.574Z,13.45
2022-09-01T15:36:37.188Z,10.60
2022-09-01T15:39:04.151Z,12.70
2022-09-01T15:41:33.503Z,15.27
2022-09-01T15:44:05.510Z,15.27
2022-09-01T15:46:34.137Z,12.40
2022-09-01T15:49:05.936Z,13.85
2022-09-01T15:51:38.706Z,13.15
2022-09-01T15:54:17.920Z,12.02
2022-09-01T15:56:47.323Z,10.85
2022-09-01T15:59:15.213Z,17.98
2022-09-01T16:01:45.066Z,28.13
2022-09-01T16:04:20.077Z,15.25
2022-09-01T16:06:49.594Z,12.50
2022-09-01T16:09:18.609Z,11.52
2022-09-01T16:11:45.470Z,14.38
2022-09-01T16:14:12.535Z,19.05
2022-09-01T16:16:56.753Z,18.08
2022-09-01T16:22:25.528Z,16.55
2022-09-01T16:24:57.940Z,14.10
2022-09-01T16:27:33.037Z,16.77
2022-09-01T16:30:08.265Z,15.45
2022-09-01T16:32:36.301Z,15.65
2022-09-01T16:35:04.536Z,16.33
2022-09-01T16:37:41.448Z,16.92
2022-09-01T16:40:28.234Z,14.07
2022-09-01T16:43:17.450Z,13.20
2022-09-01T16:46:20.559Z,17.02
2022-09-01T16:49:18.345Z,12.40
2022-09-01T16:52:02.152Z,11.18
2022-09-01T16:54:49.512Z,15.35
2022-09-01T16:57:32.652Z,13.20
2022-09-01T17:00:01.916Z,23.00
2022-09-01T17:02:51.102Z,22.85
2022-09-01T17:05:25.889Z,13.93
2022-09-01T17:07:55.437Z,17.88
2022-09-01T17:11:18.679Z,15.48
2022-09-01T17:13:49.477Z,13.18
2022-09-01T17:16:29.794Z,14.00
2022-09-01T17:18:59.750Z,15.95
2022-09-01T17:21:45.342Z,18.48
2022-09-01T17:24:38.679Z,15.40
2022-09-01T17:27:28.523Z,10.35
2022-09-01T17:29:57.257Z,18.80
2022-09-01T17:32:54.917Z,17.42
2022-09-01T17:36:02.938Z,14.75
2022-09-01T17:39:07.547Z,14.90
2022-09-01T17:42:25.081Z,13.55
2022-09-01T17:44:56.399Z,15.98
2022-09-01T17:47:32.663Z,13.85
2022-09-01T17:50:08.188Z,19.52
2022-09-01T17:52:59.745Z,19.98
2022-09-01T17:55:53.786Z,19.45
2022-09-01T17:58:48.519Z,17.88
2022-09-01T18:01:34.594Z,16.65
2022-09-01T18:04:16.988Z,13.73
2022-09-01T18:07:04.833Z,13.05
2022-09-01T18:09:41.533Z,12.68
2022-09-01T18:12:13.530Z,12.15
2022-09-01T18:14:43.447Z,12.90
2022-09-01T18:17:16.907Z,14.05
2022-09-01T18:19:48.115Z,14.95
2022-09-01T18:22:22.891Z,20.55
2022-09-01T18:24:57.911Z,18.08
2022-09-01T18:27:27.711Z,16.80
2022-09-01T18:29:56.971Z,18.00
2022-09-01T18:32:49.504Z,16.63
2022-09-01T18:35:42.157Z,12.63
2022-09-01T18:38:14.895Z,15.02
2022-09-01T18:40:48.735Z,14.40
2022-09-01T18:43:29.293Z,14.00
2022-09-01T18:46:05.157Z,21.83
2022-09-01T18:48:44.327Z,13.10
2022-09-01T18:51:29.835Z,21.40
2022-09-01T18:54:20.990Z,17.48
2022-09-01T18:56:51.875Z,31.25
2022-09-01T18:59:48.004Z,23.23
2022-09-01T19:02:21.043Z,22.95
2022-09-01T19:04:52.705Z,16.45
2022-09-01T19:07:42.252Z,16.60
2022-09-01T19:10:27.362Z,17.23
2022-09-01T19:12:57.108Z,21.20
2022-09-01T19:15:47.103Z,17.33
2022-09-01T19:18:20.195Z,24.02
2022-09-01T19:21:05.906Z,26.13
2022-09-01T19:23:47.846Z,17.17
2022-09-01T19:26:21.484Z,17.48
2022-09-01T19:29:05.230Z,18.30
2022-09-01T19:31:42.391Z,14.77
2022-09-01T19:34:25.693Z,18.52
2022-09-01T19:36:59.817Z,31.77
2022-09-01T19:39:33.530Z,27.05
2022-09-01T19:42:08.997Z,18.58
2022-09-01T19:44:47.861Z,18.52
2022-09-01T19:47:21.337Z,16.20
2022-09-01T19:50:15.068Z,18.50
2022-09-01T19:52:56.831Z,16.37
2022-09-01T19:55:43.086Z,14.70
2022-09-01T19:58:21.218Z,20.95
2022-09-01T20:01:01.446Z,17.17
2022-09-01T20:03:46.749Z,22.65
2022-09-01T20:06:35.312Z,19.45
2022-09-01T20:09:07.603Z,14.95
2022-09-01T20:11:49.603Z,22.60
2022-09-01T20:14:32.494Z,27.90
2022-09-01T20:17:06.373Z,20.30
2022-09-01T20:19:55.464Z,14.02
2022-09-01T20:22:50.125Z,17.63
2022-09-01T20:27:52.150Z,16.85
2022-09-01T20:30:37.229Z,18.85
2022-09-01T20:33:09.338Z,15.95
2022-09-01T20:35:39.063Z,22.63
2022-09-01T20:38:55.224Z,19.10
2022-09-01T20:44:15.673Z,25.63
2022-09-01T20:46:42.507Z,25.20
2022-09-01T20:49:15.996Z,22.63
2022-09-01T20:51:50.437Z,23.10
2022-09-01T20:54:57.639Z,22.55
2022-09-01T20:57:55.187Z,24.60
2022-09-01T21:00:26.063Z,22.30
2022-09-01T21:03:17.752Z,30.63
2022-09-01T21:06:42.843Z,26.30
2022-09-01T21:09:18.888Z,35.03
2022-09-01T21:11:55.147Z,28.40
2022-09-01T21:14:31.519Z,26.75
2022-09-01T21:17:45.924Z,32.22
2022-09-01T21:20:36.412Z,25.73
2022-09-01T21:23:03.787Z,39.88
2022-09-01T21:25:33.553Z,23.58
2022-09-01T21:28:04.542Z,24.13
2022-09-01T21:30:34.903Z,26.63
2022-09-01T21:33:03.041Z,24.67
2022-09-01T21:35:30.038Z,28.75
2022-09-01T21:37:56.821Z,26.63
2022-09-01T21:40:25.446Z,26.20
2022-09-01T21:43:00.835Z,30.02
2022-09-01T21:45:27.932Z,21.65
2022-09-01T21:47:54.780Z,20.17
2022-09-01T21:50:23.628Z,23.02
2022-09-01T21:52:50.915Z,19.90
2022-09-01T21:55:22.523Z,27.13
2022-09-01T21:57:50.946Z,31.20
2022-09-01T22:00:24.139Z,26.73
2022-09-01T22:02:51.625Z,25.33
2022-09-01T22:05:18.520Z,24.48
2022-09-01T22:07:47.213Z,23.80
2022-09-01T22:10:18.072Z,19.45
2022-09-01T22:12:46.595Z,20.65
2022-09-01T22:15:15.913Z,28.35
2022-09-01T22:17:43.352Z,21.00
2022-09-01T22:20:12.313Z,21.90
2022-09-01T22:22:39.788Z,23.35
2022-09-01T22:25:11.256Z,24.85
2022-09-01T22:27:38.091Z,21.10
2022-09-01T22:30:06.290Z,24.52
2022-09-01T22:32:36.245Z,18.98
2022-09-01T22:35:04.971Z,22.75
2022-09-01T22:37:31.758Z,27.60
2022-09-01T22:39:58.650Z,25.75
2022-09-01T22:42:25.770Z,24.27
2022-09-01T22:44:52.541Z,19.42
2022-09-01T22:47:19.488Z,24.67
2022-09-01T22:49:46.235Z,20.25
2022-09-01T22:52:13.867Z,18.63
2022-09-01T22:54:41.135Z,20.25
2022-09-01T22:57:07.876Z,24.35
2022-09-01T22:59:34.778Z,17.75
2022-09-01T23:02:01.921Z,16.73
2022-09-01T23:04:32.143Z,18.13
2022-09-01T23:06:59.266Z,22.30
2022-09-01T23:09:26.105Z,16.08
2022-09-01T23:11:52.974Z,16.20
2022-09-01T23:14:19.808Z,16.75
2022-09-01T23:16:47.492Z,31.80
2022-09-01T23:19:22.505Z,23.77
2022-09-01T23:21:51.181Z,18.85
2022-09-01T23:24:19.855Z,21.35
2022-09-01T23:26:47.968Z,21.90
2022-09-01T23:29:15.154Z,17.58
2022-09-01T23:31:43.672Z,22.13
2022-09-01T23:34:10.634Z,20.52
2022-09-01T23:36:37.603Z,21.25
2022-09-01T23:39:05.797Z,23.00
2022-09-01T23:41:34.954Z,24.83
2022-09-01T23:44:04.223Z,23.83
2022-09-01T23:46:34.119Z,24.95
2022-09-01T23:49:02.215Z,18.33
2022-09-01T23:51:29.186Z,23.15
2022-09-01T23:53:56.181Z,21.05
2022-09-01T23:56:25.815Z,24.65
2022-09-01T23:58:53.019Z,20.30
